sensor_id;sensor_type;location;lat;lon;timestamp;P1;durP1;ratioP1;P2;durP2;ratioP2
20776;SDS011;10548;47.504;8.248;2023-10-31T00:02:10;0.00;;;0.00;;
20776;SDS011;10548;47.504;8.248;2023-10-31T00:04:37;0.00;;;0.00;;
20776;SDS011;10548;47.504;8.248;2023-10-31T00:07:05;0.00;;;0.00;;
20776;SDS011;10548;47.504;8.248;2023-10-31T00:09:32;0.00;;;0.00;;
20776;SDS011;10548;47.504;8.248;2023-10-31T00:11:59;0.27;;;0.10;;
20776;SDS011;10548;47.504;8.248;2023-10-31T00:14:26;0.30;;;0.00;;
20776;SDS011;10548;47.504;8.248;2023-10-31T00:16:57;0.00;;;0.00;;
20776;SDS011;10548;47.504;8.248;2023-10-31T00:19:25;0.10;;;0.10;;
20776;SDS011;10548;47.504;8.248;2023-10-31T00:21:53;0.10;;;0.00;;
20776;SDS011;10548;47.504;8.248;2023-10-31T00:24:20;0.00;;;0.00;;
20776;SDS011;10548;47.504;8.248;2023-10-31T00:26:47;0.73;;;0.10;;
20776;SDS011;10548;47.504;8.248;2023-10-31T00:29:14;0.23;;;0.00;;
20776;SDS011;10548;47.504;8.248;2023-10-31T00:31:41;0.83;;;0.13;;
20776;SDS011;10548;47.504;8.248;2023-10-31T00:34:09;0.53;;;0.10;;
20776;SDS011;10548;47.504;8.248;2023-10-31T00:36:36;0.13;;;0.10;;
20776;SDS011;10548;47.504;8.248;2023-10-31T00:39:04;0.20;;;0.10;;
20776;SDS011;10548;47.504;8.248;2023-10-31T00:41:31;0.73;;;0.20;;
20776;SDS011;10548;47.504;8.248;2023-10-31T00:43:59;1.10;;;0.10;;
20776;SDS011;10548;47.504;8.248;2023-10-31T00:46:26;0.20;;;0.10;;
20776;SDS011;10548;47.504;8.248;2023-10-31T00:48:53;0.17;;;0.10;;
20776;SDS011;10548;47.504;8.248;2023-10-31T00:51:21;0.20;;;0.20;;
20776;SDS011;10548;47.504;8.248;2023-10-31T00:53:48;0.20;;;0.10;;
20776;SDS011;10548;47.504;8.248;2023-10-31T00:56:16;0.17;;;0.10;;
20776;SDS011;10548;47.504;8.248;2023-10-31T00:58:43;0.30;;;0.20;;
20776;SDS011;10548;47.504;8.248;2023-10-31T01:01:10;0.20;;;0.10;;
20776;SDS011;10548;47.504;8.248;2023-10-31T01:03:37;0.43;;;0.10;;
20776;SDS011;10548;47.504;8.248;2023-10-31T01:06:04;0.70;;;0.10;;
20776;SDS011;10548;47.504;8.248;2023-10-31T01:08:31;0.53;;;0.10;;
20776;SDS011;10548;47.504;8.248;2023-10-31T01:10:59;0.23;;;0.10;;
20776;SDS011;10548;47.504;8.248;2023-10-31T01:13:26;2.03;;;0.20;;
20776;SDS011;10548;47.504;8.248;2023-10-31T01:15:53;0.10;;;0.10;;
20776;SDS011;10548;47.504;8.248;2023-10-31T01:18:20;0.10;;;0.03;;
20776;SDS011;10548;47.504;8.248;2023-10-31T01:20:47;0.10;;;0.10;;
20776;SDS011;10548;47.504;8.248;2023-10-31T01:23:15;0.13;;;0.10;;
20776;SDS011;10548;47.504;8.248;2023-10-31T01:25:42;0.37;;;0.10;;
20776;SDS011;10548;47.504;8.248;2023-10-31T01:28:10;0.10;;;0.10;;
20776;SDS011;10548;47.504;8.248;2023-10-31T01:30:37;0.10;;;0.00;;
20776;SDS011;10548;47.504;8.248;2023-10-31T01:33:04;0.10;;;0.10;;
20776;SDS011;10548;47.504;8.248;2023-10-31T01:35:32;0.40;;;0.20;;
20776;SDS011;10548;47.504;8.248;2023-10-31T01:37:59;0.53;;;0.10;;
20776;SDS011;10548;47.504;8.248;2023-10-31T01:40:26;0.30;;;0.07;;
20776;SDS011;10548;47.504;8.248;2023-10-31T01:42:54;0.33;;;0.00;;
20776;SDS011;10548;47.504;8.248;2023-10-31T01:45:22;0.10;;;0.10;;
20776;SDS011;10548;47.504;8.248;2023-10-31T01:47:49;0.20;;;0.10;;
20776;SDS011;10548;47.504;8.248;2023-10-31T01:50:17;0.30;;;0.10;;
20776;SDS011;10548;47.504;8.248;2023-10-31T01:52:44;0.10;;;0.10;;
20776;SDS011;10548;47.504;8.248;2023-10-31T01:55:12;0.30;;;0.20;;
20776;SDS011;10548;47.504;8.248;2023-10-31T01:57:41;0.20;;;0.10;;
20776;SDS011;10548;47.504;8.248;2023-10-31T02:00:11;0.57;;;0.10;;
20776;SDS011;10548;47.504;8.248;2023-10-31T02:02:40;0.40;;;0.27;;
20776;SDS011;10548;47.504;8.248;2023-10-31T02:05:11;0.10;;;0.10;;
20776;SDS011;10548;47.504;8.248;2023-10-31T02:07:38;1.07;;;0.20;;
20776;SDS011;10548;47.504;8.248;2023-10-31T02:10:05;0.27;;;0.13;;
20776;SDS011;10548;47.504;8.248;2023-10-31T02:12:37;0.13;;;0.10;;
20776;SDS011;10548;47.504;8.248;2023-10-31T02:15:05;0.20;;;0.10;;
20776;SDS011;10548;47.504;8.248;2023-10-31T02:17:35;0.50;;;0.10;;
20776;SDS011;10548;47.504;8.248;2023-10-31T02:20:02;0.33;;;0.20;;
20776;SDS011;10548;47.504;8.248;2023-10-31T02:22:29;0.93;;;0.10;;
20776;SDS011;10548;47.504;8.248;2023-10-31T02:24:56;0.20;;;0.17;;
20776;SDS011;10548;47.504;8.248;2023-10-31T02:27:24;0.30;;;0.10;;
20776;SDS011;10548;47.504;8.248;2023-10-31T02:29:51;0.00;;;0.00;;
20776;SDS011;10548;47.504;8.248;2023-10-31T02:32:19;0.10;;;0.10;;
20776;SDS011;10548;47.504;8.248;2023-10-31T02:34:46;0.30;;;0.10;;
20776;SDS011;10548;47.504;8.248;2023-10-31T02:37:13;0.20;;;0.10;;
20776;SDS011;10548;47.504;8.248;2023-10-31T02:39:40;0.10;;;0.10;;
20776;SDS011;10548;47.504;8.248;2023-10-31T02:42:08;0.30;;;0.10;;
20776;SDS011;10548;47.504;8.248;2023-10-31T02:44:35;0.10;;;0.10;;
20776;SDS011;10548;47.504;8.248;2023-10-31T02:47:03;0.10;;;0.10;;
20776;SDS011;10548;47.504;8.248;2023-10-31T02:49:30;0.07;;;0.07;;
20776;SDS011;10548;47.504;8.248;2023-10-31T02:51:57;4.13;;;0.60;;
20776;SDS011;10548;47.504;8.248;2023-10-31T02:54:24;1.17;;;0.23;;
20776;SDS011;10548;47.504;8.248;2023-10-31T02:56:51;1.30;;;0.30;;
20776;SDS011;10548;47.504;8.248;2023-10-31T02:59:18;1.47;;;0.30;;
20776;SDS011;10548;47.504;8.248;2023-10-31T03:01:46;0.40;;;0.20;;
20776;SDS011;10548;47.504;8.248;2023-10-31T03:04:13;1.23;;;0.30;;
20776;SDS011;10548;47.504;8.248;2023-10-31T03:06:40;0.90;;;0.30;;
20776;SDS011;10548;47.504;8.248;2023-10-31T03:09:07;1.00;;;0.17;;
20776;SDS011;10548;47.504;8.248;2023-10-31T03:11:34;1.00;;;0.27;;
20776;SDS011;10548;47.504;8.248;2023-10-31T03:14:02;0.67;;;0.13;;
20776;SDS011;10548;47.504;8.248;2023-10-31T03:16:29;1.43;;;0.30;;
20776;SDS011;10548;47.504;8.248;2023-10-31T03:18:56;0.90;;;0.27;;
20776;SDS011;10548;47.504;8.248;2023-10-31T03:21:23;0.73;;;0.37;;
20776;SDS011;10548;47.504;8.248;2023-10-31T03:23:51;2.37;;;0.50;;
20776;SDS011;10548;47.504;8.248;2023-10-31T03:26:22;1.03;;;0.40;;
20776;SDS011;10548;47.504;8.248;2023-10-31T03:28:49;2.80;;;0.60;;
20776;SDS011;10548;47.504;8.248;2023-10-31T03:31:17;1.40;;;0.43;;
20776;SDS011;10548;47.504;8.248;2023-10-31T03:33:44;1.10;;;0.20;;
20776;SDS011;10548;47.504;8.248;2023-10-31T03:36:11;1.40;;;0.40;;
20776;SDS011;10548;47.504;8.248;2023-10-31T03:38:38;0.70;;;0.33;;
20776;SDS011;10548;47.504;8.248;2023-10-31T03:41:05;1.03;;;0.33;;
20776;SDS011;10548;47.504;8.248;2023-10-31T03:43:33;1.13;;;0.20;;
20776;SDS011;10548;47.504;8.248;2023-10-31T03:46:00;0.67;;;0.17;;
20776;SDS011;10548;47.504;8.248;2023-10-31T03:48:27;1.00;;;0.20;;
20776;SDS011;10548;47.504;8.248;2023-10-31T03:50:54;0.70;;;0.27;;
20776;SDS011;10548;47.504;8.248;2023-10-31T03:53:21;1.13;;;0.23;;
20776;SDS011;10548;47.504;8.248;2023-10-31T03:55:49;0.60;;;0.30;;
20776;SDS011;10548;47.504;8.248;2023-10-31T03:58:16;0.77;;;0.10;;
20776;SDS011;10548;47.504;8.248;2023-10-31T04:00:43;1.07;;;0.20;;
20776;SDS011;10548;47.504;8.248;2023-10-31T04:03:10;2.57;;;0.23;;
20776;SDS011;10548;47.504;8.248;2023-10-31T04:05:37;0.60;;;0.10;;
20776;SDS011;10548;47.504;8.248;2023-10-31T04:08:04;0.50;;;0.10;;
20776;SDS011;10548;47.504;8.248;2023-10-31T04:10:32;1.80;;;0.30;;
20776;SDS011;10548;47.504;8.248;2023-10-31T04:12:59;1.57;;;0.20;;
20776;SDS011;10548;47.504;8.248;2023-10-31T04:15:26;0.47;;;0.10;;
20776;SDS011;10548;47.504;8.248;2023-10-31T04:17:53;0.40;;;0.13;;
20776;SDS011;10548;47.504;8.248;2023-10-31T04:20:20;1.23;;;0.23;;
20776;SDS011;10548;47.504;8.248;2023-10-31T04:22:47;1.50;;;0.33;;
20776;SDS011;10548;47.504;8.248;2023-10-31T04:25:15;0.70;;;0.10;;
20776;SDS011;10548;47.504;8.248;2023-10-31T04:27:42;0.17;;;0.10;;
20776;SDS011;10548;47.504;8.248;2023-10-31T04:30:09;0.40;;;0.10;;
20776;SDS011;10548;47.504;8.248;2023-10-31T04:32:40;0.00;;;0.00;;
20776;SDS011;10548;47.504;8.248;2023-10-31T04:35:08;0.20;;;0.10;;
20776;SDS011;10548;47.504;8.248;2023-10-31T04:37:35;0.53;;;0.10;;
20776;SDS011;10548;47.504;8.248;2023-10-31T04:40:02;0.43;;;0.23;;
20776;SDS011;10548;47.504;8.248;2023-10-31T04:42:31;1.73;;;0.20;;
20776;SDS011;10548;47.504;8.248;2023-10-31T04:44:59;0.70;;;0.00;;
20776;SDS011;10548;47.504;8.248;2023-10-31T04:47:27;0.40;;;0.20;;
20776;SDS011;10548;47.504;8.248;2023-10-31T04:49:54;0.30;;;0.10;;
20776;SDS011;10548;47.504;8.248;2023-10-31T04:52:21;0.63;;;0.20;;
20776;SDS011;10548;47.504;8.248;2023-10-31T04:54:49;0.30;;;0.10;;
20776;SDS011;10548;47.504;8.248;2023-10-31T04:57:16;0.00;;;0.00;;
20776;SDS011;10548;47.504;8.248;2023-10-31T04:59:43;0.40;;;0.10;;
20776;SDS011;10548;47.504;8.248;2023-10-31T05:02:10;0.40;;;0.10;;
20776;SDS011;10548;47.504;8.248;2023-10-31T05:04:38;0.20;;;0.20;;
20776;SDS011;10548;47.504;8.248;2023-10-31T05:07:06;0.30;;;0.17;;
20776;SDS011;10548;47.504;8.248;2023-10-31T05:09:33;0.30;;;0.20;;
20776;SDS011;10548;47.504;8.248;2023-10-31T05:12:01;0.23;;;0.20;;
20776;SDS011;10548;47.504;8.248;2023-10-31T05:14:28;0.30;;;0.27;;
20776;SDS011;10548;47.504;8.248;2023-10-31T05:16:55;0.70;;;0.60;;
20776;SDS011;10548;47.504;8.248;2023-10-31T05:19:22;0.73;;;0.60;;
20776;SDS011;10548;47.504;8.248;2023-10-31T05:21:49;0.90;;;0.80;;
20776;SDS011;10548;47.504;8.248;2023-10-31T05:24:17;1.40;;;1.00;;
20776;SDS011;10548;47.504;8.248;2023-10-31T05:26:44;1.30;;;1.10;;
20776;SDS011;10548;47.504;8.248;2023-10-31T05:29:11;0.90;;;0.90;;
20776;SDS011;10548;47.504;8.248;2023-10-31T05:31:38;1.63;;;1.20;;
20776;SDS011;10548;47.504;8.248;2023-10-31T05:34:06;1.30;;;1.00;;
20776;SDS011;10548;47.504;8.248;2023-10-31T05:36:33;0.90;;;0.80;;
20776;SDS011;10548;47.504;8.248;2023-10-31T05:39:00;0.73;;;0.60;;
20776;SDS011;10548;47.504;8.248;2023-10-31T05:41:27;0.70;;;0.50;;
20776;SDS011;10548;47.504;8.248;2023-10-31T05:43:54;1.33;;;0.40;;
20776;SDS011;10548;47.504;8.248;2023-10-31T05:46:21;1.13;;;0.40;;
20776;SDS011;10548;47.504;8.248;2023-10-31T05:48:49;0.50;;;0.40;;
20776;SDS011;10548;47.504;8.248;2023-10-31T05:51:18;0.77;;;0.47;;
20776;SDS011;10548;47.504;8.248;2023-10-31T05:53:46;0.50;;;0.40;;
20776;SDS011;10548;47.504;8.248;2023-10-31T05:56:14;0.50;;;0.40;;
20776;SDS011;10548;47.504;8.248;2023-10-31T05:58:42;0.90;;;0.40;;
20776;SDS011;10548;47.504;8.248;2023-10-31T06:01:10;0.60;;;0.20;;
20776;SDS011;10548;47.504;8.248;2023-10-31T06:03:37;1.37;;;0.33;;
20776;SDS011;10548;47.504;8.248;2023-10-31T06:06:08;0.23;;;0.23;;
20776;SDS011;10548;47.504;8.248;2023-10-31T06:08:36;0.67;;;0.40;;
20776;SDS011;10548;47.504;8.248;2023-10-31T06:11:03;0.97;;;0.40;;
20776;SDS011;10548;47.504;8.248;2023-10-31T06:13:30;0.57;;;0.40;;
20776;SDS011;10548;47.504;8.248;2023-10-31T06:15:58;0.90;;;0.40;;
20776;SDS011;10548;47.504;8.248;2023-10-31T06:18:27;0.10;;;0.10;;
20776;SDS011;10548;47.504;8.248;2023-10-31T06:20:55;0.50;;;0.20;;
20776;SDS011;10548;47.504;8.248;2023-10-31T06:23:22;0.93;;;0.20;;
20776;SDS011;10548;47.504;8.248;2023-10-31T06:25:49;0.37;;;0.20;;
20776;SDS011;10548;47.504;8.248;2023-10-31T06:28:17;0.80;;;0.40;;
20776;SDS011;10548;47.504;8.248;2023-10-31T06:30:44;0.70;;;0.30;;
20776;SDS011;10548;47.504;8.248;2023-10-31T06:33:11;0.60;;;0.30;;
20776;SDS011;10548;47.504;8.248;2023-10-31T06:35:39;1.70;;;0.30;;
20776;SDS011;10548;47.504;8.248;2023-10-31T06:38:06;1.00;;;0.40;;
20776;SDS011;10548;47.504;8.248;2023-10-31T06:40:33;0.30;;;0.20;;
20776;SDS011;10548;47.504;8.248;2023-10-31T06:43:01;0.43;;;0.20;;
20776;SDS011;10548;47.504;8.248;2023-10-31T06:45:28;0.80;;;0.20;;
20776;SDS011;10548;47.504;8.248;2023-10-31T06:47:55;0.80;;;0.37;;
20776;SDS011;10548;47.504;8.248;2023-10-31T06:50:22;0.30;;;0.10;;
20776;SDS011;10548;47.504;8.248;2023-10-31T06:52:50;0.67;;;0.20;;
20776;SDS011;10548;47.504;8.248;2023-10-31T06:55:18;1.30;;;0.30;;
20776;SDS011;10548;47.504;8.248;2023-10-31T06:57:45;1.03;;;0.20;;
20776;SDS011;10548;47.504;8.248;2023-10-31T07:00:12;0.60;;;0.30;;
20776;SDS011;10548;47.504;8.248;2023-10-31T07:02:40;0.33;;;0.20;;
20776;SDS011;10548;47.504;8.248;2023-10-31T07:05:07;0.40;;;0.20;;
20776;SDS011;10548;47.504;8.248;2023-10-31T07:07:35;0.43;;;0.20;;
20776;SDS011;10548;47.504;8.248;2023-10-31T07:10:02;0.57;;;0.20;;
20776;SDS011;10548;47.504;8.248;2023-10-31T07:12:30;0.53;;;0.27;;
20776;SDS011;10548;47.504;8.248;2023-10-31T07:14:57;0.83;;;0.30;;
20776;SDS011;10548;47.504;8.248;2023-10-31T07:17:25;0.47;;;0.30;;
20776;SDS011;10548;47.504;8.248;2023-10-31T07:19:53;0.73;;;0.10;;
20776;SDS011;10548;47.504;8.248;2023-10-31T07:22:20;0.57;;;0.37;;
20776;SDS011;10548;47.504;8.248;2023-10-31T07:24:49;0.20;;;0.10;;
20776;SDS011;10548;47.504;8.248;2023-10-31T07:27:17;0.30;;;0.20;;
20776;SDS011;10548;47.504;8.248;2023-10-31T07:29:45;0.57;;;0.30;;
20776;SDS011;10548;47.504;8.248;2023-10-31T07:32:13;0.77;;;0.60;;
20776;SDS011;10548;47.504;8.248;2023-10-31T07:34:40;1.63;;;0.80;;
20776;SDS011;10548;47.504;8.248;2023-10-31T07:37:11;1.50;;;0.90;;
20776;SDS011;10548;47.504;8.248;2023-10-31T07:39:38;2.03;;;0.90;;
20776;SDS011;10548;47.504;8.248;2023-10-31T07:42:05;1.97;;;1.27;;
20776;SDS011;10548;47.504;8.248;2023-10-31T07:44:33;1.33;;;0.93;;
20776;SDS011;10548;47.504;8.248;2023-10-31T07:47:00;1.10;;;0.70;;
20776;SDS011;10548;47.504;8.248;2023-10-31T07:49:28;1.97;;;0.90;;
20776;SDS011;10548;47.504;8.248;2023-10-31T07:51:55;1.50;;;1.10;;
20776;SDS011;10548;47.504;8.248;2023-10-31T07:54:23;1.57;;;1.20;;
20776;SDS011;10548;47.504;8.248;2023-10-31T07:56:50;2.13;;;1.03;;
20776;SDS011;10548;47.504;8.248;2023-10-31T07:59:17;1.47;;;0.97;;
20776;SDS011;10548;47.504;8.248;2023-10-31T08:01:44;2.00;;;1.10;;
20776;SDS011;10548;47.504;8.248;2023-10-31T08:04:11;1.57;;;0.80;;
20776;SDS011;10548;47.504;8.248;2023-10-31T08:06:41;1.43;;;0.53;;
20776;SDS011;10548;47.504;8.248;2023-10-31T08:09:08;1.13;;;0.53;;
20776;SDS011;10548;47.504;8.248;2023-10-31T08:11:36;1.33;;;0.50;;
20776;SDS011;10548;47.504;8.248;2023-10-31T08:14:03;1.07;;;0.60;;
20776;SDS011;10548;47.504;8.248;2023-10-31T08:16:30;0.90;;;0.43;;
20776;SDS011;10548;47.504;8.248;2023-10-31T08:18:57;3.43;;;0.63;;
20776;SDS011;10548;47.504;8.248;2023-10-31T08:21:24;2.27;;;0.60;;
20776;SDS011;10548;47.504;8.248;2023-10-31T08:23:54;1.27;;;0.40;;
20776;SDS011;10548;47.504;8.248;2023-10-31T08:26:22;2.73;;;0.47;;
20776;SDS011;10548;47.504;8.248;2023-10-31T08:28:49;0.70;;;0.40;;
20776;SDS011;10548;47.504;8.248;2023-10-31T08:31:18;0.50;;;0.30;;
20776;SDS011;10548;47.504;8.248;2023-10-31T08:33:46;0.73;;;0.40;;
20776;SDS011;10548;47.504;8.248;2023-10-31T08:36:14;1.57;;;0.37;;
20776;SDS011;10548;47.504;8.248;2023-10-31T08:38:41;1.83;;;0.40;;
20776;SDS011;10548;47.504;8.248;2023-10-31T08:41:08;1.20;;;0.47;;
20776;SDS011;10548;47.504;8.248;2023-10-31T08:43:35;1.40;;;0.40;;
20776;SDS011;10548;47.504;8.248;2023-10-31T08:46:03;1.93;;;0.40;;
20776;SDS011;10548;47.504;8.248;2023-10-31T08:48:30;2.63;;;0.60;;
20776;SDS011;10548;47.504;8.248;2023-10-31T08:50:57;0.83;;;0.30;;
20776;SDS011;10548;47.504;8.248;2023-10-31T08:53:24;2.07;;;0.63;;
20776;SDS011;10548;47.504;8.248;2023-10-31T08:55:51;3.13;;;0.53;;
20776;SDS011;10548;47.504;8.248;2023-10-31T08:58:18;0.60;;;0.40;;
20776;SDS011;10548;47.504;8.248;2023-10-31T09:00:46;1.20;;;0.50;;
20776;SDS011;10548;47.504;8.248;2023-10-31T09:03:13;0.90;;;0.47;;
20776;SDS011;10548;47.504;8.248;2023-10-31T09:05:41;1.77;;;0.50;;
20776;SDS011;10548;47.504;8.248;2023-10-31T09:08:09;1.47;;;0.60;;
20776;SDS011;10548;47.504;8.248;2023-10-31T09:10:37;1.93;;;0.60;;
20776;SDS011;10548;47.504;8.248;2023-10-31T09:13:05;1.93;;;0.50;;
20776;SDS011;10548;47.504;8.248;2023-10-31T09:15:32;0.90;;;0.50;;
20776;SDS011;10548;47.504;8.248;2023-10-31T09:17:59;3.17;;;0.83;;
20776;SDS011;10548;47.504;8.248;2023-10-31T09:20:26;1.33;;;0.40;;
20776;SDS011;10548;47.504;8.248;2023-10-31T09:22:54;1.57;;;0.60;;
20776;SDS011;10548;47.504;8.248;2023-10-31T09:25:21;1.33;;;0.43;;
20776;SDS011;10548;47.504;8.248;2023-10-31T09:27:48;1.93;;;0.50;;
20776;SDS011;10548;47.504;8.248;2023-10-31T09:30:15;2.23;;;0.63;;
20776;SDS011;10548;47.504;8.248;2023-10-31T09:32:42;1.23;;;0.57;;
20776;SDS011;10548;47.504;8.248;2023-10-31T09:35:10;2.53;;;0.80;;
20776;SDS011;10548;47.504;8.248;2023-10-31T09:37:38;2.43;;;0.90;;
20776;SDS011;10548;47.504;8.248;2023-10-31T09:40:06;3.40;;;1.00;;
20776;SDS011;10548;47.504;8.248;2023-10-31T09:42:34;1.93;;;0.80;;
20776;SDS011;10548;47.504;8.248;2023-10-31T09:45:01;1.73;;;0.60;;
20776;SDS011;10548;47.504;8.248;2023-10-31T09:47:29;3.40;;;0.97;;
20776;SDS011;10548;47.504;8.248;2023-10-31T09:49:59;2.20;;;0.87;;
20776;SDS011;10548;47.504;8.248;2023-10-31T09:52:26;3.33;;;0.80;;
20776;SDS011;10548;47.504;8.248;2023-10-31T09:54:53;3.03;;;0.93;;
20776;SDS011;10548;47.504;8.248;2023-10-31T09:57:22;1.53;;;1.00;;
20776;SDS011;10548;47.504;8.248;2023-10-31T09:59:49;6.27;;;1.40;;
20776;SDS011;10548;47.504;8.248;2023-10-31T10:02:19;4.00;;;1.30;;
20776;SDS011;10548;47.504;8.248;2023-10-31T10:04:49;1.63;;;0.80;;
20776;SDS011;10548;47.504;8.248;2023-10-31T10:07:17;2.43;;;0.80;;
20776;SDS011;10548;47.504;8.248;2023-10-31T10:09:46;2.60;;;0.93;;
20776;SDS011;10548;47.504;8.248;2023-10-31T10:12:13;1.40;;;0.97;;
20776;SDS011;10548;47.504;8.248;2023-10-31T10:14:42;2.00;;;0.90;;
20776;SDS011;10548;47.504;8.248;2023-10-31T10:17:15;3.20;;;1.20;;
20776;SDS011;10548;47.504;8.248;2023-10-31T10:19:43;3.03;;;1.20;;
20776;SDS011;10548;47.504;8.248;2023-10-31T10:22:10;2.03;;;0.93;;
20776;SDS011;10548;47.504;8.248;2023-10-31T10:24:41;3.67;;;0.77;;
20776;SDS011;10548;47.504;8.248;2023-10-31T10:27:08;2.20;;;0.90;;
20776;SDS011;10548;47.504;8.248;2023-10-31T10:29:37;2.50;;;1.10;;
20776;SDS011;10548;47.504;8.248;2023-10-31T10:32:05;6.17;;;1.53;;
20776;SDS011;10548;47.504;8.248;2023-10-31T10:34:35;3.47;;;1.20;;
20776;SDS011;10548;47.504;8.248;2023-10-31T10:37:04;5.20;;;1.13;;
20776;SDS011;10548;47.504;8.248;2023-10-31T10:39:32;3.20;;;1.00;;
20776;SDS011;10548;47.504;8.248;2023-10-31T10:42:03;3.67;;;1.10;;
20776;SDS011;10548;47.504;8.248;2023-10-31T10:44:35;2.67;;;0.77;;
20776;SDS011;10548;47.504;8.248;2023-10-31T10:47:05;2.77;;;1.10;;
20776;SDS011;10548;47.504;8.248;2023-10-31T10:49:34;4.60;;;1.00;;
20776;SDS011;10548;47.504;8.248;2023-10-31T10:55:10;5.37;;;1.10;;
20776;SDS011;10548;47.504;8.248;2023-10-31T10:57:42;3.17;;;1.03;;
20776;SDS011;10548;47.504;8.248;2023-10-31T11:00:14;4.30;;;1.00;;
20776;SDS011;10548;47.504;8.248;2023-10-31T11:02:43;3.20;;;1.30;;
20776;SDS011;10548;47.504;8.248;2023-10-31T11:05:12;3.60;;;1.13;;
20776;SDS011;10548;47.504;8.248;2023-10-31T11:07:40;1.17;;;0.93;;
20776;SDS011;10548;47.504;8.248;2023-10-31T11:10:08;4.80;;;1.10;;
20776;SDS011;10548;47.504;8.248;2023-10-31T11:12:36;3.50;;;1.00;;
20776;SDS011;10548;47.504;8.248;2023-10-31T11:15:06;5.17;;;1.20;;
20776;SDS011;10548;47.504;8.248;2023-10-31T11:17:39;1.90;;;0.87;;
20776;SDS011;10548;47.504;8.248;2023-10-31T11:20:11;1.50;;;0.70;;
20776;SDS011;10548;47.504;8.248;2023-10-31T11:22:42;1.33;;;0.80;;
20776;SDS011;10548;47.504;8.248;2023-10-31T11:25:16;2.50;;;0.77;;
20776;SDS011;10548;47.504;8.248;2023-10-31T11:28:14;2.20;;;0.97;;
20776;SDS011;10548;47.504;8.248;2023-10-31T11:30:42;3.90;;;0.80;;
20776;SDS011;10548;47.504;8.248;2023-10-31T11:33:13;2.80;;;1.17;;
20776;SDS011;10548;47.504;8.248;2023-10-31T11:35:42;2.30;;;0.90;;
20776;SDS011;10548;47.504;8.248;2023-10-31T11:38:12;2.00;;;0.83;;
20776;SDS011;10548;47.504;8.248;2023-10-31T11:46:23;2.30;;;0.87;;
20776;SDS011;10548;47.504;8.248;2023-10-31T11:48:55;1.63;;;0.50;;
20776;SDS011;10548;47.504;8.248;2023-10-31T11:51:24;2.00;;;0.83;;
20776;SDS011;10548;47.504;8.248;2023-10-31T11:53:51;3.07;;;0.80;;
20776;SDS011;10548;47.504;8.248;2023-10-31T11:56:19;2.93;;;0.70;;
20776;SDS011;10548;47.504;8.248;2023-10-31T12:01:44;3.13;;;0.73;;
20776;SDS011;10548;47.504;8.248;2023-10-31T12:04:21;3.27;;;0.87;;
20776;SDS011;10548;47.504;8.248;2023-10-31T12:06:59;6.00;;;0.90;;
20776;SDS011;10548;47.504;8.248;2023-10-31T12:09:27;2.97;;;0.93;;
20776;SDS011;10548;47.504;8.248;2023-10-31T12:11:57;1.20;;;0.50;;
20776;SDS011;10548;47.504;8.248;2023-10-31T12:14:24;3.70;;;0.90;;
20776;SDS011;10548;47.504;8.248;2023-10-31T12:16:51;1.43;;;0.60;;
20776;SDS011;10548;47.504;8.248;2023-10-31T12:19:20;2.83;;;1.10;;
20776;SDS011;10548;47.504;8.248;2023-10-31T12:21:47;5.33;;;0.70;;
20776;SDS011;10548;47.504;8.248;2023-10-31T12:24:17;1.70;;;0.60;;
20776;SDS011;10548;47.504;8.248;2023-10-31T12:26:44;0.63;;;0.60;;
20776;SDS011;10548;47.504;8.248;2023-10-31T12:31:49;2.37;;;0.87;;
20776;SDS011;10548;47.504;8.248;2023-10-31T12:34:21;0.93;;;0.50;;
20776;SDS011;10548;47.504;8.248;2023-10-31T12:36:51;0.93;;;0.50;;
20776;SDS011;10548;47.504;8.248;2023-10-31T12:39:21;0.40;;;0.40;;
20776;SDS011;10548;47.504;8.248;2023-10-31T12:41:49;0.90;;;0.57;;
20776;SDS011;10548;47.504;8.248;2023-10-31T12:44:17;2.50;;;0.70;;
20776;SDS011;10548;47.504;8.248;2023-10-31T12:46:50;2.30;;;0.63;;
20776;SDS011;10548;47.504;8.248;2023-10-31T12:49:18;2.57;;;0.50;;
20776;SDS011;10548;47.504;8.248;2023-10-31T12:52:08;6.80;;;0.50;;
20776;SDS011;10548;47.504;8.248;2023-10-31T12:54:34;0.30;;;0.30;;
20776;SDS011;10548;47.504;8.248;2023-10-31T12:57:06;1.17;;;0.40;;
20776;SDS011;10548;47.504;8.248;2023-10-31T12:59:34;0.40;;;0.23;;
20776;SDS011;10548;47.504;8.248;2023-10-31T13:02:04;0.50;;;0.30;;
20776;SDS011;10548;47.504;8.248;2023-10-31T13:04:33;0.93;;;0.40;;
20776;SDS011;10548;47.504;8.248;2023-10-31T13:07:07;0.50;;;0.40;;
20776;SDS011;10548;47.504;8.248;2023-10-31T13:09:35;0.40;;;0.40;;
20776;SDS011;10548;47.504;8.248;2023-10-31T13:12:06;0.47;;;0.20;;
20776;SDS011;10548;47.504;8.248;2023-10-31T13:14:34;0.83;;;0.40;;
20776;SDS011;10548;47.504;8.248;2023-10-31T13:17:03;0.70;;;0.33;;
20776;SDS011;10548;47.504;8.248;2023-10-31T13:19:31;1.20;;;0.47;;
20776;SDS011;10548;47.504;8.248;2023-10-31T13:21:58;0.67;;;0.23;;
20776;SDS011;10548;47.504;8.248;2023-10-31T13:24:25;0.60;;;0.30;;
20776;SDS011;10548;47.504;8.248;2023-10-31T13:26:52;1.13;;;0.40;;
20776;SDS011;10548;47.504;8.248;2023-10-31T13:29:20;0.30;;;0.30;;
20776;SDS011;10548;47.504;8.248;2023-10-31T13:31:48;1.00;;;0.40;;
20776;SDS011;10548;47.504;8.248;2023-10-31T13:34:15;0.50;;;0.40;;
20776;SDS011;10548;47.504;8.248;2023-10-31T13:36:43;0.87;;;0.50;;
20776;SDS011;10548;47.504;8.248;2023-10-31T13:39:11;1.07;;;0.40;;
20776;SDS011;10548;47.504;8.248;2023-10-31T13:41:38;1.47;;;0.33;;
20776;SDS011;10548;47.504;8.248;2023-10-31T13:44:05;0.90;;;0.20;;
20776;SDS011;10548;47.504;8.248;2023-10-31T13:46:33;1.13;;;0.40;;
20776;SDS011;10548;47.504;8.248;2023-10-31T13:49:00;4.03;;;0.40;;
20776;SDS011;10548;47.504;8.248;2023-10-31T13:51:27;0.63;;;0.30;;
20776;SDS011;10548;47.504;8.248;2023-10-31T13:53:54;1.13;;;0.50;;
20776;SDS011;10548;47.504;8.248;2023-10-31T13:56:21;0.33;;;0.23;;
20776;SDS011;10548;47.504;8.248;2023-10-31T13:58:49;0.20;;;0.20;;
20776;SDS011;10548;47.504;8.248;2023-10-31T14:01:16;0.50;;;0.20;;
20776;SDS011;10548;47.504;8.248;2023-10-31T14:03:43;0.13;;;0.13;;
20776;SDS011;10548;47.504;8.248;2023-10-31T14:06:11;0.63;;;0.40;;
20776;SDS011;10548;47.504;8.248;2023-10-31T14:08:39;0.60;;;0.30;;
20776;SDS011;10548;47.504;8.248;2023-10-31T14:11:06;0.80;;;0.30;;
20776;SDS011;10548;47.504;8.248;2023-10-31T14:13:37;0.20;;;0.20;;
20776;SDS011;10548;47.504;8.248;2023-10-31T14:16:06;0.83;;;0.40;;
20776;SDS011;10548;47.504;8.248;2023-10-31T14:18:34;0.20;;;0.20;;
20776;SDS011;10548;47.504;8.248;2023-10-31T14:21:01;0.47;;;0.20;;
20776;SDS011;10548;47.504;8.248;2023-10-31T14:23:28;0.20;;;0.20;;
20776;SDS011;10548;47.504;8.248;2023-10-31T14:25:55;0.17;;;0.17;;
20776;SDS011;10548;47.504;8.248;2023-10-31T14:28:22;0.33;;;0.23;;
20776;SDS011;10548;47.504;8.248;2023-10-31T14:30:50;0.30;;;0.30;;
20776;SDS011;10548;47.504;8.248;2023-10-31T14:33:18;0.57;;;0.30;;
20776;SDS011;10548;47.504;8.248;2023-10-31T14:35:45;1.77;;;0.40;;
20776;SDS011;10548;47.504;8.248;2023-10-31T14:38:16;0.30;;;0.20;;
20776;SDS011;10548;47.504;8.248;2023-10-31T14:40:44;0.37;;;0.30;;
20776;SDS011;10548;47.504;8.248;2023-10-31T14:43:11;0.30;;;0.30;;
20776;SDS011;10548;47.504;8.248;2023-10-31T14:45:44;0.30;;;0.30;;
20776;SDS011;10548;47.504;8.248;2023-10-31T14:48:11;0.57;;;0.30;;
20776;SDS011;10548;47.504;8.248;2023-10-31T14:50:39;1.13;;;0.30;;
20776;SDS011;10548;47.504;8.248;2023-10-31T14:53:07;0.77;;;0.20;;
20776;SDS011;10548;47.504;8.248;2023-10-31T14:55:36;1.03;;;0.30;;
20776;SDS011;10548;47.504;8.248;2023-10-31T14:58:03;0.47;;;0.30;;
20776;SDS011;10548;47.504;8.248;2023-10-31T15:00:30;0.30;;;0.30;;
20776;SDS011;10548;47.504;8.248;2023-10-31T15:02:57;0.40;;;0.40;;
20776;SDS011;10548;47.504;8.248;2023-10-31T15:05:24;0.30;;;0.20;;
20776;SDS011;10548;47.504;8.248;2023-10-31T15:07:52;0.53;;;0.30;;